sensor_id;sensor_type;location;lat;lon;timestamp;P1;durP1;ratioP1;P2;durP2;ratioP2
19621;SDS011;9958;33.196;-97.114;2023-10-08T00:01:24;0.88;;;0.68;;
19621;SDS011;9958;33.196;-97.114;2023-10-08T00:03:52;1.05;;;0.52;;
19621;SDS011;9958;33.196;-97.114;2023-10-08T00:06:23;4.18;;;0.88;;
19621;SDS011;9958;33.196;-97.114;2023-10-08T00:08:53;0.50;;;0.50;;
19621;SDS011;9958;33.196;-97.114;2023-10-08T00:11:27;1.90;;;1.08;;
19621;SDS011;9958;33.196;-97.114;2023-10-08T00:13:56;1.42;;;1.10;;
19621;SDS011;9958;33.196;-97.114;2023-10-08T00:16:26;1.92;;;1.00;;
19621;SDS011;9958;33.196;-97.114;2023-10-08T00:18:55;0.75;;;0.75;;
19621;SDS011;9958;33.196;-97.114;2023-10-08T00:21:33;2.83;;;0.73;;
19621;SDS011;9958;33.196;-97.114;2023-10-08T00:24:04;0.63;;;0.60;;
19621;SDS011;9958;33.196;-97.114;2023-10-08T00:26:36;1.27;;;0.60;;
19621;SDS011;9958;33.196;-97.114;2023-10-08T00:29:06;1.02;;;0.60;;
19621;SDS011;9958;33.196;-97.114;2023-10-08T00:31:41;0.70;;;0.60;;
19621;SDS011;9958;33.196;-97.114;2023-10-08T00:34:10;0.70;;;0.50;;
19621;SDS011;9958;33.196;-97.114;2023-10-08T00:36:40;1.13;;;0.63;;
19621;SDS011;9958;33.196;-97.114;2023-10-08T00:39:09;0.68;;;0.50;;
19621;SDS011;9958;33.196;-97.114;2023-10-08T00:41:42;0.90;;;0.60;;
19621;SDS011;9958;33.196;-97.114;2023-10-08T00:44:12;1.25;;;0.70;;
19621;SDS011;9958;33.196;-97.114;2023-10-08T00:46:48;0.70;;;0.70;;
19621;SDS011;9958;33.196;-97.114;2023-10-08T00:49:17;3.55;;;1.05;;
19621;SDS011;9958;33.196;-97.114;2023-10-08T00:52:00;3.58;;;1.42;;
19621;SDS011;9958;33.196;-97.114;2023-10-08T00:54:52;3.50;;;1.80;;
19621;SDS011;9958;33.196;-97.114;2023-10-08T00:57:35;2.42;;;1.50;;
19621;SDS011;9958;33.196;-97.114;2023-10-08T01:00:08;1.75;;;1.35;;
19621;SDS011;9958;33.196;-97.114;2023-10-08T01:02:47;2.55;;;1.30;;
19621;SDS011;9958;33.196;-97.114;2023-10-08T01:05:25;2.58;;;1.48;;
19621;SDS011;9958;33.196;-97.114;2023-10-08T01:08:02;1.35;;;1.25;;
19621;SDS011;9958;33.196;-97.114;2023-10-08T01:10:32;0.95;;;0.90;;
19621;SDS011;9958;33.196;-97.114;2023-10-08T01:13:05;1.73;;;1.00;;
19621;SDS011;9958;33.196;-97.114;2023-10-08T01:15:40;1.38;;;0.80;;
19621;SDS011;9958;33.196;-97.114;2023-10-08T01:18:10;0.88;;;0.73;;
19621;SDS011;9958;33.196;-97.114;2023-10-08T01:20:43;1.77;;;0.70;;
19621;SDS011;9958;33.196;-97.114;2023-10-08T01:23:19;3.30;;;1.65;;
19621;SDS011;9958;33.196;-97.114;2023-10-08T01:25:52;2.60;;;1.42;;
19621;SDS011;9958;33.196;-97.114;2023-10-08T01:28:35;3.30;;;1.25;;
19621;SDS011;9958;33.196;-97.114;2023-10-08T01:31:03;2.15;;;1.30;;
19621;SDS011;9958;33.196;-97.114;2023-10-08T01:33:32;2.40;;;1.10;;
19621;SDS011;9958;33.196;-97.114;2023-10-08T01:36:04;1.67;;;1.00;;
19621;SDS011;9958;33.196;-97.114;2023-10-08T01:38:40;1.67;;;1.30;;
19621;SDS011;9958;33.196;-97.114;2023-10-08T01:41:08;1.58;;;0.90;;
19621;SDS011;9958;33.196;-97.114;2023-10-08T01:43:44;1.35;;;0.90;;
19621;SDS011;9958;33.196;-97.114;2023-10-08T01:46:12;1.15;;;0.80;;
19621;SDS011;9958;33.196;-97.114;2023-10-08T01:48:41;1.88;;;1.00;;
19621;SDS011;9958;33.196;-97.114;2023-10-08T01:51:10;1.70;;;0.77;;
19621;SDS011;9958;33.196;-97.114;2023-10-08T01:53:51;1.17;;;1.00;;
19621;SDS011;9958;33.196;-97.114;2023-10-08T01:56:23;4.85;;;0.95;;
19621;SDS011;9958;33.196;-97.114;2023-10-08T01:58:51;3.38;;;0.90;;
19621;SDS011;9958;33.196;-97.114;2023-10-08T02:01:21;1.33;;;0.93;;
19621;SDS011;9958;33.196;-97.114;2023-10-08T02:03:49;2.95;;;1.30;;
19621;SDS011;9958;33.196;-97.114;2023-10-08T02:06:17;2.95;;;0.80;;
19621;SDS011;9958;33.196;-97.114;2023-10-08T02:08:46;0.95;;;0.70;;
19621;SDS011;9958;33.196;-97.114;2023-10-08T02:11:16;0.77;;;0.65;;
19621;SDS011;9958;33.196;-97.114;2023-10-08T02:13:45;0.57;;;0.57;;
19621;SDS011;9958;33.196;-97.114;2023-10-08T02:16:17;1.23;;;0.85;;
19621;SDS011;9958;33.196;-97.114;2023-10-08T02:18:47;5.38;;;0.90;;
19621;SDS011;9958;33.196;-97.114;2023-10-08T02:21:17;1.75;;;0.90;;
19621;SDS011;9958;33.196;-97.114;2023-10-08T02:23:45;1.67;;;0.88;;
19621;SDS011;9958;33.196;-97.114;2023-10-08T02:26:14;2.20;;;1.20;;
19621;SDS011;9958;33.196;-97.114;2023-10-08T02:28:44;1.90;;;0.95;;
19621;SDS011;9958;33.196;-97.114;2023-10-08T02:31:14;0.90;;;0.90;;
19621;SDS011;9958;33.196;-97.114;2023-10-08T02:33:43;0.82;;;0.82;;
19621;SDS011;9958;33.196;-97.114;2023-10-08T02:36:12;6.10;;;1.05;;
19621;SDS011;9958;33.196;-97.114;2023-10-08T02:38:41;4.03;;;0.95;;
19621;SDS011;9958;33.196;-97.114;2023-10-08T02:41:09;1.80;;;1.05;;
19621;SDS011;9958;33.196;-97.114;2023-10-08T02:43:44;0.60;;;0.60;;
19621;SDS011;9958;33.196;-97.114;2023-10-08T02:46:14;1.08;;;0.80;;
19621;SDS011;9958;33.196;-97.114;2023-10-08T02:48:43;1.02;;;0.90;;
19621;SDS011;9958;33.196;-97.114;2023-10-08T02:51:12;0.85;;;0.85;;
19621;SDS011;9958;33.196;-97.114;2023-10-08T02:53:41;1.10;;;1.10;;
19621;SDS011;9958;33.196;-97.114;2023-10-08T02:56:10;0.88;;;0.80;;
19621;SDS011;9958;33.196;-97.114;2023-10-08T02:58:41;1.88;;;0.80;;
19621;SDS011;9958;33.196;-97.114;2023-10-08T03:01:13;1.13;;;0.90;;
19621;SDS011;9958;33.196;-97.114;2023-10-08T03:03:41;0.70;;;0.70;;
19621;SDS011;9958;33.196;-97.114;2023-10-08T03:06:12;1.13;;;0.80;;
19621;SDS011;9958;33.196;-97.114;2023-10-08T03:08:40;2.78;;;0.80;;
19621;SDS011;9958;33.196;-97.114;2023-10-08T03:11:09;1.80;;;0.80;;
19621;SDS011;9958;33.196;-97.114;2023-10-08T03:13:45;2.75;;;1.20;;
19621;SDS011;9958;33.196;-97.114;2023-10-08T03:16:17;0.95;;;0.90;;
19621;SDS011;9958;33.196;-97.114;2023-10-08T03:18:53;1.00;;;0.88;;
19621;SDS011;9958;33.196;-97.114;2023-10-08T03:21:22;0.73;;;0.73;;
19621;SDS011;9958;33.196;-97.114;2023-10-08T03:24:14;1.05;;;0.80;;
19621;SDS011;9958;33.196;-97.114;2023-10-08T03:26:55;1.08;;;0.98;;
19621;SDS011;9958;33.196;-97.114;2023-10-08T03:29:33;0.73;;;0.73;;
19621;SDS011;9958;33.196;-97.114;2023-10-08T03:32:06;2.83;;;0.90;;
19621;SDS011;9958;33.196;-97.114;2023-10-08T03:34:39;0.70;;;0.70;;
19621;SDS011;9958;33.196;-97.114;2023-10-08T03:37:09;2.40;;;1.15;;
19621;SDS011;9958;33.196;-97.114;2023-10-08T03:39:45;1.52;;;1.15;;
19621;SDS011;9958;33.196;-97.114;2023-10-08T03:42:33;1.45;;;0.90;;
19621;SDS011;9958;33.196;-97.114;2023-10-08T03:45:07;2.00;;;1.00;;
19621;SDS011;9958;33.196;-97.114;2023-10-08T03:47:42;0.90;;;0.80;;
19621;SDS011;9958;33.196;-97.114;2023-10-08T03:50:11;2.72;;;0.93;;
19621;SDS011;9958;33.196;-97.114;2023-10-08T03:52:43;0.98;;;0.80;;
19621;SDS011;9958;33.196;-97.114;2023-10-08T03:55:12;1.58;;;0.77;;
19621;SDS011;9958;33.196;-97.114;2023-10-08T03:57:52;1.30;;;1.25;;
19621;SDS011;9958;33.196;-97.114;2023-10-08T04:00:25;1.27;;;1.00;;
19621;SDS011;9958;33.196;-97.114;2023-10-08T04:02:57;1.17;;;0.85;;
19621;SDS011;9958;33.196;-97.114;2023-10-08T04:05:34;1.70;;;0.95;;
19621;SDS011;9958;33.196;-97.114;2023-10-08T04:08:10;1.48;;;0.80;;
19621;SDS011;9958;33.196;-97.114;2023-10-08T04:10:50;1.42;;;0.93;;
19621;SDS011;9958;33.196;-97.114;2023-10-08T04:13:34;0.80;;;0.80;;
19621;SDS011;9958;33.196;-97.114;2023-10-08T04:16:11;2.90;;;1.20;;
19621;SDS011;9958;33.196;-97.114;2023-10-08T04:18:44;1.10;;;0.98;;
19621;SDS011;9958;33.196;-97.114;2023-10-08T04:21:17;1.77;;;1.10;;
19621;SDS011;9958;33.196;-97.114;2023-10-08T04:23:46;0.88;;;0.88;;
19621;SDS011;9958;33.196;-97.114;2023-10-08T04:26:18;1.25;;;1.15;;
19621;SDS011;9958;33.196;-97.114;2023-10-08T04:28:49;0.90;;;0.90;;
19621;SDS011;9958;33.196;-97.114;2023-10-08T04:31:24;1.23;;;1.10;;
19621;SDS011;9958;33.196;-97.114;2023-10-08T04:34:02;2.03;;;1.30;;
19621;SDS011;9958;33.196;-97.114;2023-10-08T04:36:35;2.15;;;1.13;;
19621;SDS011;9958;33.196;-97.114;2023-10-08T04:39:06;3.17;;;1.25;;
19621;SDS011;9958;33.196;-97.114;2023-10-08T04:41:39;2.38;;;1.20;;
19621;SDS011;9958;33.196;-97.114;2023-10-08T04:44:08;1.52;;;1.40;;
19621;SDS011;9958;33.196;-97.114;2023-10-08T04:46:42;1.40;;;1.23;;
19621;SDS011;9958;33.196;-97.114;2023-10-08T04:49:18;1.50;;;1.35;;
19621;SDS011;9958;33.196;-97.114;2023-10-08T04:51:54;4.28;;;1.40;;
19621;SDS011;9958;33.196;-97.114;2023-10-08T04:54:25;1.92;;;1.20;;
19621;SDS011;9958;33.196;-97.114;2023-10-08T04:56:57;1.27;;;1.15;;
19621;SDS011;9958;33.196;-97.114;2023-10-08T04:59:26;1.38;;;1.25;;
19621;SDS011;9958;33.196;-97.114;2023-10-08T05:02:01;1.38;;;1.05;;
19621;SDS011;9958;33.196;-97.114;2023-10-08T05:04:59;1.85;;;1.20;;
19621;SDS011;9958;33.196;-97.114;2023-10-08T05:07:46;1.42;;;1.25;;
19621;SDS011;9958;33.196;-97.114;2023-10-08T05:10:37;2.13;;;1.08;;
19621;SDS011;9958;33.196;-97.114;2023-10-08T05:13:22;1.98;;;1.10;;
19621;SDS011;9958;33.196;-97.114;2023-10-08T05:15:58;1.88;;;1.17;;
19621;SDS011;9958;33.196;-97.114;2023-10-08T05:18:46;2.13;;;1.27;;
19621;SDS011;9958;33.196;-97.114;2023-10-08T05:21:31;1.20;;;1.10;;
19621;SDS011;9958;33.196;-97.114;2023-10-08T05:24:17;1.60;;;1.00;;
19621;SDS011;9958;33.196;-97.114;2023-10-08T05:27:03;2.80;;;1.05;;
19621;SDS011;9958;33.196;-97.114;2023-10-08T05:29:45;1.35;;;1.05;;
19621;SDS011;9958;33.196;-97.114;2023-10-08T05:32:39;1.10;;;1.10;;
19621;SDS011;9958;33.196;-97.114;2023-10-08T05:35:33;1.23;;;1.13;;
19621;SDS011;9958;33.196;-97.114;2023-10-08T05:38:16;1.40;;;1.30;;
19621;SDS011;9958;33.196;-97.114;2023-10-08T05:41:02;2.47;;;2.17;;
19621;SDS011;9958;33.196;-97.114;2023-10-08T05:43:42;1.95;;;1.15;;
19621;SDS011;9958;33.196;-97.114;2023-10-08T05:46:21;1.65;;;1.05;;
19621;SDS011;9958;33.196;-97.114;2023-10-08T05:49:07;1.27;;;1.17;;
19621;SDS011;9958;33.196;-97.114;2023-10-08T05:51:50;1.10;;;1.00;;
19621;SDS011;9958;33.196;-97.114;2023-10-08T05:54:39;1.70;;;1.20;;
19621;SDS011;9958;33.196;-97.114;2023-10-08T05:57:23;0.82;;;0.82;;
19621;SDS011;9958;33.196;-97.114;2023-10-08T06:00:05;3.45;;;1.13;;
19621;SDS011;9958;33.196;-97.114;2023-10-08T06:02:50;1.95;;;1.10;;
19621;SDS011;9958;33.196;-97.114;2023-10-08T06:05:35;2.38;;;0.90;;
19621;SDS011;9958;33.196;-97.114;2023-10-08T06:08:31;1.08;;;0.90;;
19621;SDS011;9958;33.196;-97.114;2023-10-08T06:11:15;4.03;;;1.10;;
19621;SDS011;9958;33.196;-97.114;2023-10-08T06:14:07;0.90;;;0.90;;
19621;SDS011;9958;33.196;-97.114;2023-10-08T06:16:42;2.08;;;1.00;;
19621;SDS011;9958;33.196;-97.114;2023-10-08T06:19:12;3.65;;;1.23;;
19621;SDS011;9958;33.196;-97.114;2023-10-08T06:21:41;1.23;;;1.10;;
19621;SDS011;9958;33.196;-97.114;2023-10-08T06:24:12;2.15;;;1.05;;
19621;SDS011;9958;33.196;-97.114;2023-10-08T06:26:42;2.13;;;0.90;;
19621;SDS011;9958;33.196;-97.114;2023-10-08T06:29:14;1.40;;;0.82;;
19621;SDS011;9958;33.196;-97.114;2023-10-08T06:31:52;2.20;;;1.20;;
19621;SDS011;9958;33.196;-97.114;2023-10-08T06:34:22;2.90;;;1.38;;
19621;SDS011;9958;33.196;-97.114;2023-10-08T06:36:53;1.10;;;1.00;;
19621;SDS011;9958;33.196;-97.114;2023-10-08T06:39:24;2.88;;;1.50;;
19621;SDS011;9958;33.196;-97.114;2023-10-08T06:41:58;3.08;;;1.45;;
19621;SDS011;9958;33.196;-97.114;2023-10-08T06:44:28;2.95;;;1.58;;
19621;SDS011;9958;33.196;-97.114;2023-10-08T06:46:56;3.45;;;1.25;;
19621;SDS011;9958;33.196;-97.114;2023-10-08T06:49:25;1.85;;;1.50;;
19621;SDS011;9958;33.196;-97.114;2023-10-08T06:51:55;4.47;;;1.77;;
19621;SDS011;9958;33.196;-97.114;2023-10-08T06:54:25;1.88;;;1.55;;
19621;SDS011;9958;33.196;-97.114;2023-10-08T06:56:56;3.10;;;1.50;;
19621;SDS011;9958;33.196;-97.114;2023-10-08T06:59:25;1.92;;;1.30;;
19621;SDS011;9958;33.196;-97.114;2023-10-08T07:01:57;1.67;;;1.55;;
19621;SDS011;9958;33.196;-97.114;2023-10-08T07:04:25;1.85;;;1.40;;
19621;SDS011;9958;33.196;-97.114;2023-10-08T07:06:54;1.65;;;1.30;;
19621;SDS011;9958;33.196;-97.114;2023-10-08T07:09:26;1.77;;;1.30;;
19621;SDS011;9958;33.196;-97.114;2023-10-08T07:11:56;1.58;;;1.33;;
19621;SDS011;9958;33.196;-97.114;2023-10-08T07:14:30;2.17;;;1.33;;
19621;SDS011;9958;33.196;-97.114;2023-10-08T07:16:59;3.05;;;1.73;;
19621;SDS011;9958;33.196;-97.114;2023-10-08T07:19:33;1.58;;;1.38;;
19621;SDS011;9958;33.196;-97.114;2023-10-08T07:22:05;2.25;;;1.60;;
19621;SDS011;9958;33.196;-97.114;2023-10-08T07:24:45;2.58;;;1.63;;
19621;SDS011;9958;33.196;-97.114;2023-10-08T07:27:16;3.55;;;1.70;;
19621;SDS011;9958;33.196;-97.114;2023-10-08T07:29:47;3.20;;;1.65;;
19621;SDS011;9958;33.196;-97.114;2023-10-08T07:32:15;5.63;;;1.77;;
19621;SDS011;9958;33.196;-97.114;2023-10-08T07:34:44;5.07;;;1.50;;
19621;SDS011;9958;33.196;-97.114;2023-10-08T07:37:12;3.10;;;1.50;;
19621;SDS011;9958;33.196;-97.114;2023-10-08T07:39:41;5.03;;;1.60;;
19621;SDS011;9958;33.196;-97.114;2023-10-08T07:42:13;2.05;;;1.67;;
19621;SDS011;9958;33.196;-97.114;2023-10-08T07:44:42;3.13;;;1.60;;
19621;SDS011;9958;33.196;-97.114;2023-10-08T07:47:12;3.38;;;1.70;;
19621;SDS011;9958;33.196;-97.114;2023-10-08T07:49:41;2.08;;;1.58;;
19621;SDS011;9958;33.196;-97.114;2023-10-08T07:52:10;4.05;;;1.88;;
19621;SDS011;9958;33.196;-97.114;2023-10-08T07:54:41;2.35;;;1.63;;
19621;SDS011;9958;33.196;-97.114;2023-10-08T07:57:09;4.07;;;1.70;;
19621;SDS011;9958;33.196;-97.114;2023-10-08T07:59:41;3.05;;;1.55;;
19621;SDS011;9958;33.196;-97.114;2023-10-08T08:02:12;1.45;;;1.30;;
19621;SDS011;9958;33.196;-97.114;2023-10-08T08:04:43;3.33;;;1.52;;
19621;SDS011;9958;33.196;-97.114;2023-10-08T08:07:16;1.58;;;1.38;;
19621;SDS011;9958;33.196;-97.114;2023-10-08T08:09:44;6.43;;;1.58;;
19621;SDS011;9958;33.196;-97.114;2023-10-08T08:12:16;5.80;;;1.92;;
19621;SDS011;9958;33.196;-97.114;2023-10-08T08:14:46;6.28;;;2.35;;
19621;SDS011;9958;33.196;-97.114;2023-10-08T08:17:15;2.40;;;1.85;;
19621;SDS011;9958;33.196;-97.114;2023-10-08T08:19:44;4.03;;;2.03;;
19621;SDS011;9958;33.196;-97.114;2023-10-08T08:22:15;3.60;;;1.75;;
19621;SDS011;9958;33.196;-97.114;2023-10-08T08:24:47;3.67;;;1.83;;
19621;SDS011;9958;33.196;-97.114;2023-10-08T08:27:18;2.83;;;2.00;;
19621;SDS011;9958;33.196;-97.114;2023-10-08T08:29:58;2.65;;;1.95;;
19621;SDS011;9958;33.196;-97.114;2023-10-08T08:32:41;2.20;;;1.40;;
19621;SDS011;9958;33.196;-97.114;2023-10-08T08:35:10;3.10;;;1.80;;
19621;SDS011;9958;33.196;-97.114;2023-10-08T08:37:42;1.88;;;1.63;;
19621;SDS011;9958;33.196;-97.114;2023-10-08T08:40:12;3.50;;;1.98;;
19621;SDS011;9958;33.196;-97.114;2023-10-08T08:42:43;4.07;;;1.80;;
19621;SDS011;9958;33.196;-97.114;2023-10-08T08:45:22;2.58;;;1.60;;
19621;SDS011;9958;33.196;-97.114;2023-10-08T08:47:52;2.00;;;1.25;;
19621;SDS011;9958;33.196;-97.114;2023-10-08T08:50:21;4.78;;;1.70;;
19621;SDS011;9958;33.196;-97.114;2023-10-08T08:52:52;1.55;;;1.40;;
19621;SDS011;9958;33.196;-97.114;2023-10-08T08:55:21;7.05;;;1.48;;
19621;SDS011;9958;33.196;-97.114;2023-10-08T08:57:50;1.58;;;1.23;;
19621;SDS011;9958;33.196;-97.114;2023-10-08T09:00:21;2.60;;;1.13;;
19621;SDS011;9958;33.196;-97.114;2023-10-08T09:02:53;3.75;;;1.23;;
19621;SDS011;9958;33.196;-97.114;2023-10-08T09:05:22;2.42;;;1.50;;
19621;SDS011;9958;33.196;-97.114;2023-10-08T09:07:55;1.55;;;1.45;;
19621;SDS011;9958;33.196;-97.114;2023-10-08T09:10:25;2.25;;;1.42;;
19621;SDS011;9958;33.196;-97.114;2023-10-08T09:12:54;3.40;;;1.38;;
19621;SDS011;9958;33.196;-97.114;2023-10-08T09:15:26;2.03;;;1.50;;
19621;SDS011;9958;33.196;-97.114;2023-10-08T09:17:55;2.13;;;1.70;;
19621;SDS011;9958;33.196;-97.114;2023-10-08T09:20:26;2.20;;;1.63;;
19621;SDS011;9958;33.196;-97.114;2023-10-08T09:25:44;5.95;;;1.60;;
19621;SDS011;9958;33.196;-97.114;2023-10-08T09:28:15;3.10;;;1.95;;
19621;SDS011;9958;33.196;-97.114;2023-10-08T09:30:45;4.35;;;2.20;;
19621;SDS011;9958;33.196;-97.114;2023-10-08T09:33:14;5.32;;;1.63;;
19621;SDS011;9958;33.196;-97.114;2023-10-08T09:35:43;2.03;;;1.77;;
19621;SDS011;9958;33.196;-97.114;2023-10-08T09:38:13;3.45;;;1.63;;
19621;SDS011;9958;33.196;-97.114;2023-10-08T09:40:47;4.40;;;1.65;;
19621;SDS011;9958;33.196;-97.114;2023-10-08T09:43:18;3.97;;;1.70;;
19621;SDS011;9958;33.196;-97.114;2023-10-08T09:45:51;6.55;;;1.92;;
19621;SDS011;9958;33.196;-97.114;2023-10-08T09:48:22;3.83;;;2.00;;
19621;SDS011;9958;33.196;-97.114;2023-10-08T09:50:55;3.38;;;1.50;;
19621;SDS011;9958;33.196;-97.114;2023-10-08T09:53:28;5.55;;;1.50;;
19621;SDS011;9958;33.196;-97.114;2023-10-08T09:56:07;3.78;;;1.30;;
19621;SDS011;9958;33.196;-97.114;2023-10-08T09:58:43;1.75;;;1.60;;
19621;SDS011;9958;33.196;-97.114;2023-10-08T10:01:16;3.45;;;1.60;;
19621;SDS011;9958;33.196;-97.114;2023-10-08T10:03:45;4.05;;;1.52;;
19621;SDS011;9958;33.196;-97.114;2023-10-08T10:06:15;2.55;;;1.70;;
19621;SDS011;9958;33.196;-97.114;2023-10-08T10:08:45;2.63;;;1.45;;
19621;SDS011;9958;33.196;-97.114;2023-10-08T10:11:15;7.00;;;1.70;;
19621;SDS011;9958;33.196;-97.114;2023-10-08T10:13:49;2.85;;;1.38;;
19621;SDS011;9958;33.196;-97.114;2023-10-08T10:16:27;1.63;;;1.20;;
19621;SDS011;9958;33.196;-97.114;2023-10-08T10:18:55;1.98;;;1.58;;
19621;SDS011;9958;33.196;-97.114;2023-10-08T10:21:25;1.23;;;1.13;;
19621;SDS011;9958;33.196;-97.114;2023-10-08T10:23:56;1.40;;;1.30;;
19621;SDS011;9958;33.196;-97.114;2023-10-08T10:26:25;4.68;;;2.00;;
19621;SDS011;9958;33.196;-97.114;2023-10-08T10:31:47;3.78;;;1.42;;
19621;SDS011;9958;33.196;-97.114;2023-10-08T10:34:19;1.90;;;1.42;;
19621;SDS011;9958;33.196;-97.114;2023-10-08T10:36:50;1.55;;;1.27;;
19621;SDS011;9958;33.196;-97.114;2023-10-08T10:39:34;3.25;;;1.42;;
19621;SDS011;9958;33.196;-97.114;2023-10-08T10:42:05;2.20;;;1.20;;
19621;SDS011;9958;33.196;-97.114;2023-10-08T10:44:46;3.38;;;1.40;;
19621;SDS011;9958;33.196;-97.114;2023-10-08T10:47:18;1.20;;;1.10;;
19621;SDS011;9958;33.196;-97.114;2023-10-08T10:50:08;2.28;;;1.42;;
19621;SDS011;9958;33.196;-97.114;2023-10-08T10:52:52;3.42;;;1.10;;
19621;SDS011;9958;33.196;-97.114;2023-10-08T10:55:21;2.00;;;1.20;;
19621;SDS011;9958;33.196;-97.114;2023-10-08T10:57:57;3.67;;;1.10;;
19621;SDS011;9958;33.196;-97.114;2023-10-08T11:00:36;1.30;;;1.20;;
19621;SDS011;9958;33.196;-97.114;2023-10-08T11:03:14;1.83;;;1.10;;
19621;SDS011;9958;33.196;-97.114;2023-10-08T11:05:50;1.23;;;1.10;;
19621;SDS011;9958;33.196;-97.114;2023-10-08T11:08:25;2.28;;;1.50;;
19621;SDS011;9958;33.196;-97.114;2023-10-08T11:10:59;2.85;;;1.70;;
19621;SDS011;9958;33.196;-97.114;2023-10-08T11:13:32;4.45;;;1.70;;
19621;SDS011;9958;33.196;-97.114;2023-10-08T11:16:05;2.20;;;1.60;;
19621;SDS011;9958;33.196;-97.114;2023-10-08T11:18:43;8.70;;;1.40;;
19621;SDS011;9958;33.196;-97.114;2023-10-08T11:21:16;2.38;;;1.42;;
19621;SDS011;9958;33.196;-97.114;2023-10-08T11:23:49;1.85;;;1.35;;
19621;SDS011;9958;33.196;-97.114;2023-10-08T11:26:24;3.70;;;1.83;;
19621;SDS011;9958;33.196;-97.114;2023-10-08T11:29:01;3.63;;;1.42;;
19621;SDS011;9958;33.196;-97.114;2023-10-08T11:31:30;4.10;;;1.52;;
19621;SDS011;9958;33.196;-97.114;2023-10-08T11:34:03;3.03;;;1.40;;
19621;SDS011;9958;33.196;-97.114;2023-10-08T11:36:35;1.70;;;1.42;;
19621;SDS011;9958;33.196;-97.114;2023-10-08T11:39:14;2.53;;;1.55;;
19621;SDS011;9958;33.196;-97.114;2023-10-08T11:41:57;2.47;;;1.20;;
19621;SDS011;9958;33.196;-97.114;2023-10-08T11:44:29;2.22;;;1.58;;
19621;SDS011;9958;33.196;-97.114;2023-10-08T11:47:01;1.25;;;1.17;;
19621;SDS011;9958;33.196;-97.114;2023-10-08T11:49:38;2.47;;;1.20;;
19621;SDS011;9958;33.196;-97.114;2023-10-08T11:52:13;1.70;;;1.20;;
19621;SDS011;9958;33.196;-97.114;2023-10-08T11:54:42;1.65;;;1.50;;
19621;SDS011;9958;33.196;-97.114;2023-10-08T11:57:13;4.88;;;1.52;;
19621;SDS011;9958;33.196;-97.114;2023-10-08T11:59:47;2.67;;;1.80;;
19621;SDS011;9958;33.196;-97.114;2023-10-08T12:02:18;3.08;;;1.40;;
19621;SDS011;9958;33.196;-97.114;2023-10-08T12:04:48;2.40;;;1.50;;
19621;SDS011;9958;33.196;-97.114;2023-10-08T12:07:16;3.55;;;1.15;;
19621;SDS011;9958;33.196;-97.114;2023-10-08T12:09:45;6.82;;;2.40;;
19621;SDS011;9958;33.196;-97.114;2023-10-08T12:12:13;6.30;;;1.60;;
19621;SDS011;9958;33.196;-97.114;2023-10-08T12:14:46;2.97;;;1.52;;
19621;SDS011;9958;33.196;-97.114;2023-10-08T12:17:15;2.78;;;1.95;;
19621;SDS011;9958;33.196;-97.114;2023-10-08T12:19:43;6.32;;;1.75;;
19621;SDS011;9958;33.196;-97.114;2023-10-08T12:22:14;2.35;;;1.38;;
19621;SDS011;9958;33.196;-97.114;2023-10-08T12:24:45;2.33;;;1.30;;
19621;SDS011;9958;33.196;-97.114;2023-10-08T12:27:13;2.38;;;1.52;;
19621;SDS011;9958;33.196;-97.114;2023-10-08T12:29:42;2.97;;;1.50;;
19621;SDS011;9958;33.196;-97.114;2023-10-08T12:32:12;5.57;;;1.35;;
19621;SDS011;9958;33.196;-97.114;2023-10-08T12:34:42;3.78;;;1.50;;
19621;SDS011;9958;33.196;-97.114;2023-10-08T12:37:14;1.67;;;1.27;;
19621;SDS011;9958;33.196;-97.114;2023-10-08T12:39:44;2.08;;;1.17;;
19621;SDS011;9958;33.196;-97.114;2023-10-08T12:42:25;3.55;;;1.35;;
19621;SDS011;9958;33.196;-97.114;2023-10-08T12:44:53;1.63;;;1.20;;
19621;SDS011;9958;33.196;-97.114;2023-10-08T12:47:22;2.22;;;1.38;;
19621;SDS011;9958;33.196;-97.114;2023-10-08T12:49:54;2.13;;;1.23;;
19621;SDS011;9958;33.196;-97.114;2023-10-08T12:52:24;2.25;;;1.33;;
19621;SDS011;9958;33.196;-97.114;2023-10-08T12:54:53;2.00;;;1.33;;
19621;SDS011;9958;33.196;-97.114;2023-10-08T12:57:24;3.47;;;1.60;;
19621;SDS011;9958;33.196;-97.114;2023-10-08T12:59:58;2.40;;;1.10;;
19621;SDS011;9958;33.196;-97.114;2023-10-08T13:02:29;2.00;;;1.65;;
19621;SDS011;9958;33.196;-97.114;2023-10-08T13:04:57;2.75;;;1.65;;
19621;SDS011;9958;33.196;-97.114;2023-10-08T13:07:27;3.17;;;1.15;;
19621;SDS011;9958;33.196;-97.114;2023-10-08T13:10:04;2.65;;;1.42;;
19621;SDS011;9958;33.196;-97.114;2023-10-08T13:12:33;5.18;;;1.38;;
19621;SDS011;9958;33.196;-97.114;2023-10-08T13:15:03;1.48;;;1.30;;
19621;SDS011;9958;33.196;-97.114;2023-10-08T13:17:32;2.65;;;1.23;;
19621;SDS011;9958;33.196;-97.114;2023-10-08T13:20:00;1.33;;;1.23;;
19621;SDS011;9958;33.196;-97.114;2023-10-08T13:22:31;1.90;;;1.10;;
19621;SDS011;9958;33.196;-97.114;2023-10-08T13:24:59;1.23;;;1.00;;
19621;SDS011;9958;33.196;-97.114;2023-10-08T13:27:30;6.25;;;1.60;;
19621;SDS011;9958;33.196;-97.114;2023-10-08T13:29:58;2.55;;;1.58;;
19621;SDS011;9958;33.196;-97.114;2023-10-08T13:32:31;4.32;;;1.67;;
19621;SDS011;9958;33.196;-97.114;2023-10-08T13:35:01;4.53;;;1.70;;
19621;SDS011;9958;33.196;-97.114;2023-10-08T13:37:33;1.73;;;1.33;;
19621;SDS011;9958;33.196;-97.114;2023-10-08T13:40:02;3.60;;;2.00;;
19621;SDS011;9958;33.196;-97.114;2023-10-08T13:42:31;5.55;;;2.00;;
19621;SDS011;9958;33.196;-97.114;2023-10-08T13:44:59;2.83;;;1.90;;
19621;SDS011;9958;33.196;-97.114;2023-10-08T13:47:33;3.45;;;2.53;;
19621;SDS011;9958;33.196;-97.114;2023-10-08T13:50:05;5.55;;;1.85;;
19621;SDS011;9958;33.196;-97.114;2023-10-08T13:52:38;5.63;;;2.05;;
19621;SDS011;9958;33.196;-97.114;2023-10-08T13:55:06;2.22;;;1.70;;
19621;SDS011;9958;33.196;-97.114;2023-10-08T13:57:39;2.47;;;1.60;;
19621;SDS011;9958;33.196;-97.114;2023-10-08T14:00:10;2.85;;;1.58;;
19621;SDS011;9958;33.196;-97.114;2023-10-08T14:02:41;4.82;;;1.60;;
19621;SDS011;9958;33.196;-97.114;2023-10-08T14:05:10;1.88;;;1.50;;
19621;SDS011;9958;33.196;-97.114;2023-10-08T14:07:42;1.98;;;1.48;;
19621;SDS011;9958;33.196;-97.114;2023-10-08T14:10:11;3.05;;;1.40;;
19621;SDS011;9958;33.196;-97.114;2023-10-08T14:12:44;1.58;;;1.48;;
19621;SDS011;9958;33.196;-97.114;2023-10-08T14:15:15;2.70;;;1.33;;
19621;SDS011;9958;33.196;-97.114;2023-10-08T14:17:44;2.33;;;1.60;;
19621;SDS011;9958;33.196;-97.114;2023-10-08T14:20:14;4.13;;;1.60;;
19621;SDS011;9958;33.196;-97.114;2023-10-08T14:22:49;3.08;;;2.00;;
19621;SDS011;9958;33.196;-97.114;2023-10-08T14:25:23;4.30;;;1.80;;
19621;SDS011;9958;33.196;-97.114;2023-10-08T14:27:54;3.10;;;1.85;;
19621;SDS011;9958;33.196;-97.114;2023-10-08T14:30:30;4.47;;;2.10;;
19621;SDS011;9958;33.196;-97.114;2023-10-08T14:33:06;2.80;;;1.73;;
19621;SDS011;9958;33.196;-97.114;2023-10-08T14:35:38;2.97;;;2.00;;
19621;SDS011;9958;33.196;-97.114;2023-10-08T14:38:25;4.00;;;1.67;;
19621;SDS011;9958;33.196;-97.114;2023-10-08T14:41:10;3.75;;;1.75;;
19621;SDS011;9958;33.196;-97.114;2023-10-08T14:43:56;3.42;;;2.03;;
19621;SDS011;9958;33.196;-97.114;2023-10-08T14:46:24;4.95;;;1.80;;
19621;SDS011;9958;33.196;-97.114;2023-10-08T14:48:56;6.00;;;1.70;;
19621;SDS011;9958;33.196;-97.114;2023-10-08T14:51:25;2.28;;;1.63;;
19621;SDS011;9958;33.196;-97.114;2023-10-08T14:53:57;1.58;;;1.48;;
19621;SDS011;9958;33.196;-97.114;2023-10-08T14:56:26;2.78;;;1.63;;
19621;SDS011;9958;33.196;-97.114;2023-10-08T14:58:58;3.38;;;1.70;;
19621;SDS011;9958;33.196;-97.114;2023-10-08T15:01:26;1.60;;;1.50;;
19621;SDS011;9958;33.196;-97.114;2023-10-08T15:03:58;3.33;;;1.45;;
19621;SDS011;9958;33.196;-97.114;2023-10-08T15:06:30;2.75;;;1.65;;
19621;SDS011;9958;33.196;-97.114;2023-10-08T15:09:00;3.05;;;1.60;;
19621;SDS011;9958;33.196;-97.114;2023-10-08T15:11:29;2.78;;;1.65;;
19621;SDS011;9958;33.196;-97.114;2023-10-08T15:13:57;3.28;;;1.60;;